sensor_id;sensor_type;location;lat;lon;timestamp;P1;durP1;ratioP1;P2;durP2;ratioP2
24617;SDS011;12762;51.730;5.356;2023-06-22T00:00:01;6.10;;;3.43;;
24617;SDS011;12762;51.730;5.356;2023-06-22T00:02:29;6.43;;;4.83;;
24617;SDS011;12762;51.730;5.356;2023-06-22T00:04:56;9.40;;;5.70;;
24617;SDS011;12762;51.730;5.356;2023-06-22T00:07:22;6.73;;;4.17;;
24617;SDS011;12762;51.730;5.356;2023-06-22T00:09:50;8.30;;;5.17;;
24617;SDS011;12762;51.730;5.356;2023-06-22T00:12:16;8.67;;;6.63;;
24617;SDS011;12762;51.730;5.356;2023-06-22T00:14:43;8.77;;;6.57;;
24617;SDS011;12762;51.730;5.356;2023-06-22T00:17:10;12.97;;;7.57;;
24617;SDS011;12762;51.730;5.356;2023-06-22T00:19:37;9.97;;;6.47;;
24617;SDS011;12762;51.730;5.356;2023-06-22T00:22:06;10.60;;;8.23;;
24617;SDS011;12762;51.730;5.356;2023-06-22T00:24:33;9.27;;;7.83;;
24617;SDS011;12762;51.730;5.356;2023-06-22T00:27:00;8.17;;;5.97;;
24617;SDS011;12762;51.730;5.356;2023-06-22T00:29:27;11.53;;;8.23;;
24617;SDS011;12762;51.730;5.356;2023-06-22T00:31:54;13.53;;;8.27;;
24617;SDS011;12762;51.730;5.356;2023-06-22T00:34:21;11.63;;;8.23;;
24617;SDS011;12762;51.730;5.356;2023-06-22T00:36:48;8.77;;;6.23;;
24617;SDS011;12762;51.730;5.356;2023-06-22T00:39:18;12.43;;;8.17;;
24617;SDS011;12762;51.730;5.356;2023-06-22T00:41:45;6.37;;;4.27;;
24617;SDS011;12762;51.730;5.356;2023-06-22T00:44:11;9.20;;;7.23;;
24617;SDS011;12762;51.730;5.356;2023-06-22T00:46:38;9.43;;;7.40;;
24617;SDS011;12762;51.730;5.356;2023-06-22T00:49:05;10.53;;;7.53;;
24617;SDS011;12762;51.730;5.356;2023-06-22T00:51:32;10.10;;;7.63;;
24617;SDS011;12762;51.730;5.356;2023-06-22T00:53:59;9.70;;;7.07;;
24617;SDS011;12762;51.730;5.356;2023-06-22T00:56:27;11.63;;;8.23;;
24617;SDS011;12762;51.730;5.356;2023-06-22T00:58:56;12.43;;;9.07;;
24617;SDS011;12762;51.730;5.356;2023-06-22T01:01:25;11.27;;;8.33;;
24617;SDS011;12762;51.730;5.356;2023-06-22T01:03:52;11.93;;;8.37;;
24617;SDS011;12762;51.730;5.356;2023-06-22T01:06:22;12.77;;;9.23;;
24617;SDS011;12762;51.730;5.356;2023-06-22T01:09:39;12.30;;;8.47;;
24617;SDS011;12762;51.730;5.356;2023-06-22T01:12:01;11.43;;;8.60;;
24617;SDS011;12762;51.730;5.356;2023-06-22T01:17:05;13.83;;;9.10;;
24617;SDS011;12762;51.730;5.356;2023-06-22T01:22:08;11.53;;;7.10;;
24617;SDS011;12762;51.730;5.356;2023-06-22T01:27:28;14.87;;;9.27;;
24617;SDS011;12762;51.730;5.356;2023-06-22T01:30:07;13.00;;;7.90;;
24617;SDS011;12762;51.730;5.356;2023-06-22T01:32:37;13.50;;;8.33;;
24617;SDS011;12762;51.730;5.356;2023-06-22T01:35:06;9.40;;;7.13;;
24617;SDS011;12762;51.730;5.356;2023-06-22T01:37:35;11.87;;;6.57;;
24617;SDS011;12762;51.730;5.356;2023-06-22T01:40:04;12.23;;;8.57;;
24617;SDS011;12762;51.730;5.356;2023-06-22T01:42:33;9.00;;;6.80;;
24617;SDS011;12762;51.730;5.356;2023-06-22T01:45:01;10.90;;;8.07;;
24617;SDS011;12762;51.730;5.356;2023-06-22T01:47:28;12.93;;;8.70;;
24617;SDS011;12762;51.730;5.356;2023-06-22T01:49:56;13.50;;;8.97;;
24617;SDS011;12762;51.730;5.356;2023-06-22T01:52:23;12.03;;;8.53;;
24617;SDS011;12762;51.730;5.356;2023-06-22T01:54:50;13.77;;;9.20;;
24617;SDS011;12762;51.730;5.356;2023-06-22T01:57:17;12.20;;;8.23;;
24617;SDS011;12762;51.730;5.356;2023-06-22T01:59:47;9.60;;;7.53;;
24617;SDS011;12762;51.730;5.356;2023-06-22T02:02:19;10.23;;;7.97;;
24617;SDS011;12762;51.730;5.356;2023-06-22T02:04:57;11.30;;;9.17;;
24617;SDS011;12762;51.730;5.356;2023-06-22T02:07:29;18.40;;;10.10;;
24617;SDS011;12762;51.730;5.356;2023-06-22T02:10:00;9.27;;;6.93;;
24617;SDS011;12762;51.730;5.356;2023-06-22T02:12:29;11.50;;;7.47;;
24617;SDS011;12762;51.730;5.356;2023-06-22T02:14:58;8.93;;;6.63;;
24617;SDS011;12762;51.730;5.356;2023-06-22T02:17:27;12.50;;;8.60;;
24617;SDS011;12762;51.730;5.356;2023-06-22T02:19:57;13.33;;;9.47;;
24617;SDS011;12762;51.730;5.356;2023-06-22T02:22:24;8.30;;;5.97;;
24617;SDS011;12762;51.730;5.356;2023-06-22T02:24:51;13.13;;;8.50;;
24617;SDS011;12762;51.730;5.356;2023-06-22T02:27:17;13.00;;;9.07;;
24617;SDS011;12762;51.730;5.356;2023-06-22T02:29:44;13.30;;;8.17;;
24617;SDS011;12762;51.730;5.356;2023-06-22T02:32:11;14.63;;;10.57;;
24617;SDS011;12762;51.730;5.356;2023-06-22T02:34:38;14.43;;;10.63;;
24617;SDS011;12762;51.730;5.356;2023-06-22T02:37:06;14.13;;;10.10;;
24617;SDS011;12762;51.730;5.356;2023-06-22T02:39:33;15.27;;;10.43;;
24617;SDS011;12762;51.730;5.356;2023-06-22T02:42:00;13.60;;;9.63;;
24617;SDS011;12762;51.730;5.356;2023-06-22T02:44:27;15.00;;;10.33;;
24617;SDS011;12762;51.730;5.356;2023-06-22T02:46:54;15.93;;;10.53;;
24617;SDS011;12762;51.730;5.356;2023-06-22T02:49:21;12.17;;;9.33;;
24617;SDS011;12762;51.730;5.356;2023-06-22T02:51:50;11.97;;;8.80;;
24617;SDS011;12762;51.730;5.356;2023-06-22T02:54:17;15.67;;;11.40;;
24617;SDS011;12762;51.730;5.356;2023-06-22T02:56:44;12.40;;;8.63;;
24617;SDS011;12762;51.730;5.356;2023-06-22T02:59:11;12.00;;;8.30;;
24617;SDS011;12762;51.730;5.356;2023-06-22T03:01:38;17.90;;;11.17;;
24617;SDS011;12762;51.730;5.356;2023-06-22T03:04:07;12.57;;;9.37;;
24617;SDS011;12762;51.730;5.356;2023-06-22T03:06:34;11.43;;;8.27;;
24617;SDS011;12762;51.730;5.356;2023-06-22T03:09:03;12.57;;;9.43;;
24617;SDS011;12762;51.730;5.356;2023-06-22T03:11:31;10.83;;;9.00;;
24617;SDS011;12762;51.730;5.356;2023-06-22T03:13:59;11.83;;;8.10;;
24617;SDS011;12762;51.730;5.356;2023-06-22T03:16:27;13.93;;;10.53;;
24617;SDS011;12762;51.730;5.356;2023-06-22T03:18:58;13.63;;;8.47;;
24617;SDS011;12762;51.730;5.356;2023-06-22T03:21:27;13.30;;;9.13;;
24617;SDS011;12762;51.730;5.356;2023-06-22T03:23:55;11.87;;;8.43;;
24617;SDS011;12762;51.730;5.356;2023-06-22T03:26:22;11.77;;;8.47;;
24617;SDS011;12762;51.730;5.356;2023-06-22T03:28:50;14.10;;;10.03;;
24617;SDS011;12762;51.730;5.356;2023-06-22T03:31:17;13.77;;;9.50;;
24617;SDS011;12762;51.730;5.356;2023-06-22T03:33:48;12.50;;;8.97;;
24617;SDS011;12762;51.730;5.356;2023-06-22T03:36:16;14.23;;;9.10;;
24617;SDS011;12762;51.730;5.356;2023-06-22T03:38:47;14.37;;;9.63;;
24617;SDS011;12762;51.730;5.356;2023-06-22T03:41:17;14.13;;;9.23;;
24617;SDS011;12762;51.730;5.356;2023-06-22T03:43:44;11.20;;;7.13;;
24617;SDS011;12762;51.730;5.356;2023-06-22T03:46:11;11.30;;;8.17;;
24617;SDS011;12762;51.730;5.356;2023-06-22T03:48:38;16.10;;;9.07;;
24617;SDS011;12762;51.730;5.356;2023-06-22T03:51:05;9.40;;;7.40;;
24617;SDS011;12762;51.730;5.356;2023-06-22T03:53:32;11.73;;;8.83;;
24617;SDS011;12762;51.730;5.356;2023-06-22T03:55:59;16.13;;;8.50;;
24617;SDS011;12762;51.730;5.356;2023-06-22T03:58:26;15.67;;;10.03;;
24617;SDS011;12762;51.730;5.356;2023-06-22T04:00:52;12.37;;;8.13;;
24617;SDS011;12762;51.730;5.356;2023-06-22T04:03:19;11.87;;;8.20;;
24617;SDS011;12762;51.730;5.356;2023-06-22T04:05:47;14.00;;;8.67;;
24617;SDS011;12762;51.730;5.356;2023-06-22T04:08:15;12.27;;;8.17;;
24617;SDS011;12762;51.730;5.356;2023-06-22T04:10:42;13.90;;;8.57;;
24617;SDS011;12762;51.730;5.356;2023-06-22T04:13:09;13.47;;;8.67;;
24617;SDS011;12762;51.730;5.356;2023-06-22T04:15:36;10.60;;;8.17;;
24617;SDS011;12762;51.730;5.356;2023-06-22T04:18:03;15.07;;;8.73;;
24617;SDS011;12762;51.730;5.356;2023-06-22T04:20:31;13.57;;;8.90;;
24617;SDS011;12762;51.730;5.356;2023-06-22T04:22:59;11.90;;;8.40;;
24617;SDS011;12762;51.730;5.356;2023-06-22T04:25:26;12.47;;;8.97;;
24617;SDS011;12762;51.730;5.356;2023-06-22T04:27:53;11.77;;;8.50;;
24617;SDS011;12762;51.730;5.356;2023-06-22T04:30:20;14.90;;;8.80;;
24617;SDS011;12762;51.730;5.356;2023-06-22T04:32:47;11.50;;;7.77;;
24617;SDS011;12762;51.730;5.356;2023-06-22T04:35:24;14.93;;;8.90;;
24617;SDS011;12762;51.730;5.356;2023-06-22T04:37:52;12.37;;;7.67;;
24617;SDS011;12762;51.730;5.356;2023-06-22T04:40:24;13.70;;;7.43;;
24617;SDS011;12762;51.730;5.356;2023-06-22T04:42:52;12.83;;;8.23;;
24617;SDS011;12762;51.730;5.356;2023-06-22T04:45:20;12.03;;;8.73;;
24617;SDS011;12762;51.730;5.356;2023-06-22T04:47:47;11.47;;;7.43;;
24617;SDS011;12762;51.730;5.356;2023-06-22T04:50:15;13.07;;;9.20;;
24617;SDS011;12762;51.730;5.356;2023-06-22T04:52:42;12.13;;;7.90;;
24617;SDS011;12762;51.730;5.356;2023-06-22T04:55:12;8.63;;;6.33;;
24617;SDS011;12762;51.730;5.356;2023-06-22T04:57:45;11.57;;;7.77;;
24617;SDS011;12762;51.730;5.356;2023-06-22T05:00:18;11.90;;;8.07;;
24617;SDS011;12762;51.730;5.356;2023-06-22T05:02:46;14.07;;;8.40;;
24617;SDS011;12762;51.730;5.356;2023-06-22T05:05:13;16.20;;;8.73;;
24617;SDS011;12762;51.730;5.356;2023-06-22T05:07:45;10.07;;;7.03;;
24617;SDS011;12762;51.730;5.356;2023-06-22T05:10:14;11.03;;;6.57;;
24617;SDS011;12762;51.730;5.356;2023-06-22T05:12:41;12.83;;;7.83;;
24617;SDS011;12762;51.730;5.356;2023-06-22T05:15:09;11.07;;;8.07;;
24617;SDS011;12762;51.730;5.356;2023-06-22T05:17:36;12.83;;;8.50;;
24617;SDS011;12762;51.730;5.356;2023-06-22T05:20:10;12.43;;;8.33;;
24617;SDS011;12762;51.730;5.356;2023-06-22T05:22:41;13.70;;;8.50;;
24617;SDS011;12762;51.730;5.356;2023-06-22T05:25:09;14.77;;;8.73;;
24617;SDS011;12762;51.730;5.356;2023-06-22T05:27:37;16.10;;;8.97;;
24617;SDS011;12762;51.730;5.356;2023-06-22T05:30:06;14.20;;;9.53;;
24617;SDS011;12762;51.730;5.356;2023-06-22T05:32:34;13.37;;;9.13;;
24617;SDS011;12762;51.730;5.356;2023-06-22T05:35:02;13.27;;;8.90;;
24617;SDS011;12762;51.730;5.356;2023-06-22T05:37:30;12.10;;;6.73;;
24617;SDS011;12762;51.730;5.356;2023-06-22T05:39:57;12.33;;;9.10;;
24617;SDS011;12762;51.730;5.356;2023-06-22T05:42:24;11.43;;;8.03;;
24617;SDS011;12762;51.730;5.356;2023-06-22T05:44:52;17.67;;;9.40;;
24617;SDS011;12762;51.730;5.356;2023-06-22T05:47:19;12.90;;;9.03;;
24617;SDS011;12762;51.730;5.356;2023-06-22T05:49:46;13.93;;;10.43;;
24617;SDS011;12762;51.730;5.356;2023-06-22T05:52:14;13.67;;;9.90;;
24617;SDS011;12762;51.730;5.356;2023-06-22T05:54:40;17.20;;;10.87;;
24617;SDS011;12762;51.730;5.356;2023-06-22T05:57:09;17.77;;;10.00;;
24617;SDS011;12762;51.730;5.356;2023-06-22T05:59:36;14.77;;;11.17;;
24617;SDS011;12762;51.730;5.356;2023-06-22T06:02:03;12.90;;;9.60;;
24617;SDS011;12762;51.730;5.356;2023-06-22T06:04:31;16.67;;;11.93;;
24617;SDS011;12762;51.730;5.356;2023-06-22T06:06:58;16.03;;;11.27;;
24617;SDS011;12762;51.730;5.356;2023-06-22T06:09:25;16.90;;;12.73;;
24617;SDS011;12762;51.730;5.356;2023-06-22T06:11:52;17.77;;;12.80;;
24617;SDS011;12762;51.730;5.356;2023-06-22T06:14:19;17.93;;;13.30;;
24617;SDS011;12762;51.730;5.356;2023-06-22T06:16:46;18.63;;;13.63;;
24617;SDS011;12762;51.730;5.356;2023-06-22T06:19:14;19.23;;;14.67;;
24617;SDS011;12762;51.730;5.356;2023-06-22T06:21:41;21.03;;;13.23;;
24617;SDS011;12762;51.730;5.356;2023-06-22T06:24:08;20.50;;;14.33;;
24617;SDS011;12762;51.730;5.356;2023-06-22T06:26:35;18.50;;;14.07;;
24617;SDS011;12762;51.730;5.356;2023-06-22T06:29:02;20.13;;;14.70;;
24617;SDS011;12762;51.730;5.356;2023-06-22T06:31:29;20.07;;;14.47;;
24617;SDS011;12762;51.730;5.356;2023-06-22T06:33:56;20.13;;;14.30;;
24617;SDS011;12762;51.730;5.356;2023-06-22T06:36:26;20.50;;;14.37;;
24617;SDS011;12762;51.730;5.356;2023-06-22T06:38:53;20.23;;;15.03;;
24617;SDS011;12762;51.730;5.356;2023-06-22T06:41:20;23.33;;;15.77;;
24617;SDS011;12762;51.730;5.356;2023-06-22T06:43:47;23.47;;;15.60;;
24617;SDS011;12762;51.730;5.356;2023-06-22T06:46:14;22.27;;;15.77;;
24617;SDS011;12762;51.730;5.356;2023-06-22T06:48:41;25.60;;;17.50;;
24617;SDS011;12762;51.730;5.356;2023-06-22T06:51:08;24.43;;;16.03;;
24617;SDS011;12762;51.730;5.356;2023-06-22T06:53:37;21.83;;;15.97;;
24617;SDS011;12762;51.730;5.356;2023-06-22T06:56:04;20.63;;;15.43;;
24617;SDS011;12762;51.730;5.356;2023-06-22T06:58:31;20.90;;;15.27;;
24617;SDS011;12762;51.730;5.356;2023-06-22T07:00:58;21.43;;;15.73;;
24617;SDS011;12762;51.730;5.356;2023-06-22T07:03:25;19.70;;;15.47;;
24617;SDS011;12762;51.730;5.356;2023-06-22T07:05:52;24.57;;;15.93;;
24617;SDS011;12762;51.730;5.356;2023-06-22T07:08:22;22.43;;;15.90;;
24617;SDS011;12762;51.730;5.356;2023-06-22T07:10:49;21.90;;;15.67;;
24617;SDS011;12762;51.730;5.356;2023-06-22T07:13:15;20.70;;;15.20;;
24617;SDS011;12762;51.730;5.356;2023-06-22T07:15:43;20.40;;;14.07;;
24617;SDS011;12762;51.730;5.356;2023-06-22T07:18:10;20.93;;;15.10;;
24617;SDS011;12762;51.730;5.356;2023-06-22T07:20:37;17.60;;;13.93;;
24617;SDS011;12762;51.730;5.356;2023-06-22T07:23:05;20.00;;;14.27;;
24617;SDS011;12762;51.730;5.356;2023-06-22T07:25:32;19.38;;;15.10;;
24617;SDS011;12762;51.730;5.356;2023-06-22T07:28:03;19.77;;;15.13;;
24617;SDS011;12762;51.730;5.356;2023-06-22T07:30:31;26.85;;;15.88;;
24617;SDS011;12762;51.730;5.356;2023-06-22T07:33:00;19.07;;;15.17;;
24617;SDS011;12762;51.730;5.356;2023-06-22T07:35:34;18.48;;;14.88;;
24617;SDS011;12762;51.730;5.356;2023-06-22T07:38:01;17.83;;;14.55;;
24617;SDS011;12762;51.730;5.356;2023-06-22T07:40:31;21.58;;;15.57;;
24617;SDS011;12762;51.730;5.356;2023-06-22T07:42:58;18.75;;;14.05;;
24617;SDS011;12762;51.730;5.356;2023-06-22T07:45:25;18.10;;;14.48;;
24617;SDS011;12762;51.730;5.356;2023-06-22T07:47:52;18.23;;;15.38;;
24617;SDS011;12762;51.730;5.356;2023-06-22T07:50:21;21.70;;;14.30;;
24617;SDS011;12762;51.730;5.356;2023-06-22T07:52:47;18.73;;;15.40;;
24617;SDS011;12762;51.730;5.356;2023-06-22T07:55:17;19.23;;;15.00;;
24617;SDS011;12762;51.730;5.356;2023-06-22T07:57:44;20.65;;;14.70;;
24617;SDS011;12762;51.730;5.356;2023-06-22T08:00:12;17.80;;;14.77;;
24617;SDS011;12762;51.730;5.356;2023-06-22T08:02:41;19.42;;;14.35;;
24617;SDS011;12762;51.730;5.356;2023-06-22T08:05:09;19.73;;;15.05;;
24617;SDS011;12762;51.730;5.356;2023-06-22T08:07:40;18.27;;;14.63;;
24617;SDS011;12762;51.730;5.356;2023-06-22T08:10:10;18.63;;;14.50;;
24617;SDS011;12762;51.730;5.356;2023-06-22T08:12:38;18.60;;;13.82;;
24617;SDS011;12762;51.730;5.356;2023-06-22T08:15:06;22.27;;;15.73;;
24617;SDS011;12762;51.730;5.356;2023-06-22T08:17:37;20.48;;;14.30;;
24617;SDS011;12762;51.730;5.356;2023-06-22T08:20:05;17.80;;;14.15;;
24617;SDS011;12762;51.730;5.356;2023-06-22T08:22:39;18.70;;;14.77;;
24617;SDS011;12762;51.730;5.356;2023-06-22T08:25:07;18.98;;;14.02;;
24617;SDS011;12762;51.730;5.356;2023-06-22T08:27:35;17.40;;;13.93;;
24617;SDS011;12762;51.730;5.356;2023-06-22T08:30:03;18.42;;;13.07;;
24617;SDS011;12762;51.730;5.356;2023-06-22T08:32:30;14.45;;;11.93;;
24617;SDS011;12762;51.730;5.356;2023-06-22T08:34:59;17.73;;;13.60;;
24617;SDS011;12762;51.730;5.356;2023-06-22T08:37:26;17.42;;;12.93;;
24617;SDS011;12762;51.730;5.356;2023-06-22T08:40:13;17.15;;;13.73;;
24617;SDS011;12762;51.730;5.356;2023-06-22T08:42:40;15.82;;;12.85;;
24617;SDS011;12762;51.730;5.356;2023-06-22T08:45:08;17.10;;;13.00;;
24617;SDS011;12762;51.730;5.356;2023-06-22T08:47:35;16.27;;;11.50;;
24617;SDS011;12762;51.730;5.356;2023-06-22T08:50:02;16.40;;;11.80;;
24617;SDS011;12762;51.730;5.356;2023-06-22T08:52:30;14.70;;;11.52;;
24617;SDS011;12762;51.730;5.356;2023-06-22T08:54:57;13.98;;;10.25;;
24617;SDS011;12762;51.730;5.356;2023-06-22T08:57:27;15.70;;;11.18;;
24617;SDS011;12762;51.730;5.356;2023-06-22T08:59:55;15.88;;;9.63;;
24617;SDS011;12762;51.730;5.356;2023-06-22T09:02:25;13.88;;;10.40;;
24617;SDS011;12762;51.730;5.356;2023-06-22T09:04:57;15.75;;;9.60;;
24617;SDS011;12762;51.730;5.356;2023-06-22T09:07:25;13.30;;;9.45;;
24617;SDS011;12762;51.730;5.356;2023-06-22T09:09:53;13.75;;;10.13;;
24617;SDS011;12762;51.730;5.356;2023-06-22T09:12:20;13.20;;;9.77;;
24617;SDS011;12762;51.730;5.356;2023-06-22T09:14:51;12.73;;;9.27;;
24617;SDS011;12762;51.730;5.356;2023-06-22T09:17:18;11.63;;;8.87;;
24617;SDS011;12762;51.730;5.356;2023-06-22T09:19:45;12.95;;;9.65;;
24617;SDS011;12762;51.730;5.356;2023-06-22T09:22:12;11.27;;;9.35;;
24617;SDS011;12762;51.730;5.356;2023-06-22T09:24:39;12.18;;;9.15;;
24617;SDS011;12762;51.730;5.356;2023-06-22T09:27:06;14.05;;;9.82;;
24617;SDS011;12762;51.730;5.356;2023-06-22T09:29:33;12.52;;;8.85;;
24617;SDS011;12762;51.730;5.356;2023-06-22T09:32:00;13.48;;;8.80;;
24617;SDS011;12762;51.730;5.356;2023-06-22T09:34:28;13.77;;;8.93;;
24617;SDS011;12762;51.730;5.356;2023-06-22T09:36:57;12.90;;;8.70;;
24617;SDS011;12762;51.730;5.356;2023-06-22T09:39:29;10.13;;;7.53;;
24617;SDS011;12762;51.730;5.356;2023-06-22T09:41:59;11.77;;;8.25;;
24617;SDS011;12762;51.730;5.356;2023-06-22T09:44:26;13.02;;;9.45;;
24617;SDS011;12762;51.730;5.356;2023-06-22T09:46:53;13.60;;;9.70;;
24617;SDS011;12762;51.730;5.356;2023-06-22T09:49:20;12.57;;;9.10;;
24617;SDS011;12762;51.730;5.356;2023-06-22T09:52:07;12.27;;;8.52;;
24617;SDS011;12762;51.730;5.356;2023-06-22T09:54:34;10.90;;;8.65;;
24617;SDS011;12762;51.730;5.356;2023-06-22T09:57:01;12.63;;;9.02;;
24617;SDS011;12762;51.730;5.356;2023-06-22T09:59:28;13.52;;;9.25;;
24617;SDS011;12762;51.730;5.356;2023-06-22T10:01:55;10.35;;;7.80;;
24617;SDS011;12762;51.730;5.356;2023-06-22T10:04:22;10.80;;;8.00;;
24617;SDS011;12762;51.730;5.356;2023-06-22T10:06:49;9.25;;;7.78;;
24617;SDS011;12762;51.730;5.356;2023-06-22T10:09:16;10.20;;;7.57;;
24617;SDS011;12762;51.730;5.356;2023-06-22T10:11:43;11.30;;;8.60;;
24617;SDS011;12762;51.730;5.356;2023-06-22T10:14:13;12.63;;;9.30;;
24617;SDS011;12762;51.730;5.356;2023-06-22T10:16:40;10.50;;;9.23;;
24617;SDS011;12762;51.730;5.356;2023-06-22T10:19:08;13.88;;;9.25;;
24617;SDS011;12762;51.730;5.356;2023-06-22T10:21:34;12.93;;;9.50;;
24617;SDS011;12762;51.730;5.356;2023-06-22T10:24:02;12.23;;;9.23;;
24617;SDS011;12762;51.730;5.356;2023-06-22T10:26:33;11.07;;;8.23;;
24617;SDS011;12762;51.730;5.356;2023-06-22T10:29:00;10.77;;;8.02;;
24617;SDS011;12762;51.730;5.356;2023-06-22T10:31:33;12.88;;;8.50;;
24617;SDS011;12762;51.730;5.356;2023-06-22T10:34:00;10.85;;;8.35;;
24617;SDS011;12762;51.730;5.356;2023-06-22T10:36:27;10.07;;;8.02;;
24617;SDS011;12762;51.730;5.356;2023-06-22T10:38:54;11.65;;;8.35;;
24617;SDS011;12762;51.730;5.356;2023-06-22T10:41:21;10.00;;;7.65;;
24617;SDS011;12762;51.730;5.356;2023-06-22T10:43:48;10.50;;;7.35;;
24617;SDS011;12762;51.730;5.356;2023-06-22T10:46:15;11.65;;;8.02;;
24617;SDS011;12762;51.730;5.356;2023-06-22T10:48:45;10.65;;;8.07;;
24617;SDS011;12762;51.730;5.356;2023-06-22T10:51:11;12.38;;;8.07;;
24617;SDS011;12762;51.730;5.356;2023-06-22T10:53:38;12.43;;;8.13;;
24617;SDS011;12762;51.730;5.356;2023-06-22T10:56:05;13.05;;;8.02;;
24617;SDS011;12762;51.730;5.356;2023-06-22T10:58:32;8.07;;;6.75;;
24617;SDS011;12762;51.730;5.356;2023-06-22T11:00:59;9.23;;;7.40;;
24617;SDS011;12762;51.730;5.356;2023-06-22T11:03:28;9.93;;;7.72;;
24617;SDS011;12762;51.730;5.356;2023-06-22T11:05:55;9.13;;;7.55;;
24617;SDS011;12762;51.730;5.356;2023-06-22T11:08:22;9.50;;;6.80;;
24617;SDS011;12762;51.730;5.356;2023-06-22T11:10:50;9.43;;;6.25;;
24617;SDS011;12762;51.730;5.356;2023-06-22T11:13:17;8.05;;;6.20;;
24617;SDS011;12762;51.730;5.356;2023-06-22T11:15:45;10.90;;;7.28;;
24617;SDS011;12762;51.730;5.356;2023-06-22T11:18:12;12.70;;;7.38;;
24617;SDS011;12762;51.730;5.356;2023-06-22T11:20:39;9.75;;;6.28;;
24617;SDS011;12762;51.730;5.356;2023-06-22T11:23:07;11.13;;;7.05;;
24617;SDS011;12762;51.730;5.356;2023-06-22T11:25:34;7.70;;;6.20;;
24617;SDS011;12762;51.730;5.356;2023-06-22T11:28:04;9.25;;;7.25;;
24617;SDS011;12762;51.730;5.356;2023-06-22T11:30:31;11.40;;;8.15;;
24617;SDS011;12762;51.730;5.356;2023-06-22T11:32:58;10.98;;;7.15;;
24617;SDS011;12762;51.730;5.356;2023-06-22T11:35:26;10.48;;;7.20;;
24617;SDS011;12762;51.730;5.356;2023-06-22T11:37:52;8.00;;;6.03;;
24617;SDS011;12762;51.730;5.356;2023-06-22T11:40:19;12.98;;;7.53;;
24617;SDS011;12762;51.730;5.356;2023-06-22T11:42:46;8.63;;;7.07;;
24617;SDS011;12762;51.730;5.356;2023-06-22T11:45:13;10.18;;;7.35;;
24617;SDS011;12762;51.730;5.356;2023-06-22T11:47:40;13.43;;;9.30;;
24617;SDS011;12762;51.730;5.356;2023-06-22T11:50:07;11.25;;;8.18;;
24617;SDS011;12762;51.730;5.356;2023-06-22T11:52:35;12.00;;;8.13;;
24617;SDS011;12762;51.730;5.356;2023-06-22T11:55:02;11.52;;;8.15;;
24617;SDS011;12762;51.730;5.356;2023-06-22T11:57:38;9.45;;;7.65;;
24617;SDS011;12762;51.730;5.356;2023-06-22T12:00:17;15.38;;;9.50;;
24617;SDS011;12762;51.730;5.356;2023-06-22T12:02:45;11.20;;;9.18;;
24617;SDS011;12762;51.730;5.356;2023-06-22T12:05:12;13.75;;;9.48;;
24617;SDS011;12762;51.730;5.356;2023-06-22T12:07:39;15.80;;;9.60;;
24617;SDS011;12762;51.730;5.356;2023-06-22T12:10:08;13.43;;;9.63;;
24617;SDS011;12762;51.730;5.356;2023-06-22T12:12:35;13.77;;;9.90;;
24617;SDS011;12762;51.730;5.356;2023-06-22T12:15:03;13.03;;;9.80;;
24617;SDS011;12762;51.730;5.356;2023-06-22T12:17:30;14.55;;;10.13;;
24617;SDS011;12762;51.730;5.356;2023-06-22T12:19:57;15.40;;;10.17;;
24617;SDS011;12762;51.730;5.356;2023-06-22T12:22:24;16.57;;;11.97;;
24617;SDS011;12762;51.730;5.356;2023-06-22T12:24:51;15.70;;;12.23;;
24617;SDS011;12762;51.730;5.356;2023-06-22T12:27:18;13.83;;;10.83;;
24617;SDS011;12762;51.730;5.356;2023-06-22T12:29:45;15.88;;;12.45;;
24617;SDS011;12762;51.730;5.356;2023-06-22T12:32:13;18.23;;;12.20;;
24617;SDS011;12762;51.730;5.356;2023-06-22T12:34:41;16.27;;;11.33;;
24617;SDS011;12762;51.730;5.356;2023-06-22T12:37:09;13.60;;;10.97;;
24617;SDS011;12762;51.730;5.356;2023-06-22T12:39:36;13.03;;;9.03;;
24617;SDS011;12762;51.730;5.356;2023-06-22T12:42:03;14.47;;;10.53;;
24617;SDS011;12762;51.730;5.356;2023-06-22T12:44:30;15.13;;;11.67;;
24617;SDS011;12762;51.730;5.356;2023-06-22T12:46:57;14.60;;;11.03;;
24617;SDS011;12762;51.730;5.356;2023-06-22T12:49:24;18.07;;;12.20;;
24617;SDS011;12762;51.730;5.356;2023-06-22T12:51:51;14.10;;;10.23;;
24617;SDS011;12762;51.730;5.356;2023-06-22T12:54:23;19.97;;;11.53;;
24617;SDS011;12762;51.730;5.356;2023-06-22T12:56:50;14.30;;;10.83;;
24617;SDS011;12762;51.730;5.356;2023-06-22T12:59:22;14.63;;;10.97;;
24617;SDS011;12762;51.730;5.356;2023-06-22T13:01:49;14.47;;;11.60;;
24617;SDS011;12762;51.730;5.356;2023-06-22T13:04:15;17.90;;;12.43;;
24617;SDS011;12762;51.730;5.356;2023-06-22T13:06:44;17.47;;;13.43;;
24617;SDS011;12762;51.730;5.356;2023-06-22T13:09:15;15.70;;;12.63;;
24617;SDS011;12762;51.730;5.356;2023-06-22T13:11:46;16.77;;;12.47;;
24617;SDS011;12762;51.730;5.356;2023-06-22T13:14:14;15.73;;;12.33;;
24617;SDS011;12762;51.730;5.356;2023-06-22T13:16:42;18.10;;;13.00;;
24617;SDS011;12762;51.730;5.356;2023-06-22T13:19:09;17.90;;;11.63;;
24617;SDS011;12762;51.730;5.356;2023-06-22T13:21:36;16.80;;;11.80;;
24617;SDS011;12762;51.730;5.356;2023-06-22T13:24:03;15.83;;;11.37;;
24617;SDS011;12762;51.730;5.356;2023-06-22T13:26:32;17.77;;;14.07;;
24617;SDS011;12762;51.730;5.356;2023-06-22T13:28:59;16.53;;;13.50;;
24617;SDS011;12762;51.730;5.356;2023-06-22T13:31:26;16.93;;;11.87;;
24617;SDS011;12762;51.730;5.356;2023-06-22T13:33:53;15.83;;;13.03;;
24617;SDS011;12762;51.730;5.356;2023-06-22T13:36:20;17.57;;;13.97;;
24617;SDS011;12762;51.730;5.356;2023-06-22T13:38:49;16.13;;;12.57;;
24617;SDS011;12762;51.730;5.356;2023-06-22T13:41:16;18.27;;;14.60;;
24617;SDS011;12762;51.730;5.356;2023-06-22T13:43:43;18.57;;;14.43;;
24617;SDS011;12762;51.730;5.356;2023-06-22T13:46:10;16.50;;;14.63;;
24617;SDS011;12762;51.730;5.356;2023-06-22T13:48:36;21.17;;;13.93;;
24617;SDS011;12762;51.730;5.356;2023-06-22T13:51:03;16.20;;;13.53;;
24617;SDS011;12762;51.730;5.356;2023-06-22T13:53:31;15.07;;;12.93;;
24617;SDS011;12762;51.730;5.356;2023-06-22T13:55:58;14.60;;;12.13;;
24617;SDS011;12762;51.730;5.356;2023-06-22T13:58:25;16.07;;;13.20;;
24617;SDS011;12762;51.730;5.356;2023-06-22T14:00:52;12.57;;;11.20;;
24617;SDS011;12762;51.730;5.356;2023-06-22T14:03:22;16.17;;;11.63;;
24617;SDS011;12762;51.730;5.356;2023-06-22T14:05:52;18.60;;;14.00;;
24617;SDS011;12762;51.730;5.356;2023-06-22T14:08:21;19.33;;;14.73;;
24617;SDS011;12762;51.730;5.356;2023-06-22T14:11:07;19.77;;;13.93;;
24617;SDS011;12762;51.730;5.356;2023-06-22T14:13:33;16.37;;;13.37;;
24617;SDS011;12762;51.730;5.356;2023-06-22T14:16:02;17.47;;;12.87;;
24617;SDS011;12762;51.730;5.356;2023-06-22T14:18:30;17.60;;;13.67;;
24617;SDS011;12762;51.730;5.356;2023-06-22T14:20:57;18.27;;;14.03;;
24617;SDS011;12762;51.730;5.356;2023-06-22T14:23:24;17.30;;;13.60;;
24617;SDS011;12762;51.730;5.356;2023-06-22T14:25:51;19.37;;;16.00;;
24617;SDS011;12762;51.730;5.356;2023-06-22T14:28:18;18.93;;;14.73;;
24617;SDS011;12762;51.730;5.356;2023-06-22T14:30:45;17.87;;;13.87;;
24617;SDS011;12762;51.730;5.356;2023-06-22T14:33:12;19.10;;;14.10;;
24617;SDS011;12762;51.730;5.356;2023-06-22T14:35:39;20.07;;;13.93;;
24617;SDS011;12762;51.730;5.356;2023-06-22T14:38:06;17.67;;;12.53;;
24617;SDS011;12762;51.730;5.356;2023-06-22T14:40:33;21.30;;;14.20;;
24617;SDS011;12762;51.730;5.356;2023-06-22T14:43:13;15.53;;;12.87;;